Time;durP1;ratioP1;P1;durP2;ratioP2;P2;SDS_P1;SDS_P2;PMS_P1;PMS_P2;Temp;Humidity;BMP_temperature;BMP_pressure;BME280_temperature;BME280_humidity;BME280_pressure;Samples;Min_cycle;Max_cycle;Signal;HPM_P1;HPM_P2
2023/01/28 00:01:42;;;;;;;7.50;5.13;;;3.10;1.00;;;;;;5020490;28;20504;-56
2023/01/28 00:04:08;;;;;;;9.00;5.32;;;;;;;;;;5035632;28;20033;-57
2023/01/28 00:06:34;;;;;;;7.88;5.45;;;;;;;;;;5038978;28;20033;-58
2023/01/28 00:09:00;;;;;;;8.80;4.93;;;;;;;;;;5036619;28;20102;-56
2023/01/28 00:11:26;;;;;;;8.75;5.30;;;;;;;;;;5033220;28;20041;-56
2023/01/28 00:13:53;;;;;;;8.45;5.00;;;3.60;1.00;;;;;;5036138;28;20069;-54
2023/01/28 00:16:21;;;;;;;8.20;5.07;;;;;;;;;;5040653;28;20029;-58
2023/01/28 00:18:47;;;;;;;8.40;5.18;;;;;;;;;;5036726;28;20045;-57
2023/01/28 00:21:14;;;;;;;8.80;5.90;;;;;;;;;;5040396;28;20082;-58
2023/01/28 00:23:41;;;;;;;11.80;6.07;;;;;;;;;;5033442;28;20084;-58
2023/01/28 00:26:12;;;;;;;7.72;4.88;;;;;;;;;;5034199;28;20041;-57
2023/01/28 00:28:38;;;;;;;6.95;4.00;;;;;;;;;;5036598;28;20402;-56
2023/01/28 00:31:08;;;;;;;6.95;4.20;;;;;;;;;;5036366;28;20041;-56
2023/01/28 00:33:35;;;;;;;7.80;4.38;;;;;;;;;;5036279;28;20101;-57
2023/01/28 00:36:01;;;;;;;6.85;4.07;;;;;;;;;;5034522;28;20041;-56
2023/01/28 00:38:28;;;;;;;8.07;5.03;;;;;;;;;;5036370;28;20445;-57
2023/01/28 00:40:54;;;;;;;7.53;4.85;;;;;;;;;;5034365;28;20048;-57
2023/01/28 00:43:20;;;;;;;7.70;4.40;;;;;;;;;;5037348;28;20052;-56
2023/01/28 00:45:47;;;;;;;7.47;4.45;;;;;;;;;;5034091;28;20152;-58
2023/01/28 00:48:13;;;;;;;9.25;5.78;;;;;;;;;;5035415;28;20391;-56
2023/01/28 00:50:40;;;;;;;12.00;6.22;;;;;;;;;;5036532;28;20037;-56
2023/01/28 00:53:06;;;;;;;11.15;6.00;;;;;;;;;;5041637;28;20132;-57
2023/01/28 00:55:32;;;;;;;8.48;4.43;;;;;;;;;;5039102;28;20040;-58
2023/01/28 00:57:58;;;;;;;7.72;4.63;;;3.10;1.00;;;;;;5029473;28;20037;-56
2023/01/28 01:00:26;;;;;;;10.73;4.32;;;;;;;;;;5040956;28;20037;-56
2023/01/28 01:02:52;;;;;;;7.82;3.95;;;;;;;;;;5036301;28;20433;-57
2023/01/28 01:05:18;;;;;;;8.68;4.47;;;;;;;;;;5037258;28;20072;-57
2023/01/28 01:07:44;;;;;;;6.25;3.92;;;;;;;;;;5036255;28;20034;-57
2023/01/28 01:10:11;;;;;;;6.55;3.95;;;;;;;;;;5036595;28;20042;-58
2023/01/28 01:12:38;;;;;;;7.20;3.63;;;3.10;1.00;;;;;;5039085;28;20037;-57
2023/01/28 01:15:07;;;;;;;6.50;3.72;;;;;;;;;;5031297;28;20037;-58
2023/01/28 01:17:36;;;;;;;6.63;3.88;;;;;;;;;;5030991;28;20040;-57
2023/01/28 01:20:02;;;;;;;6.50;3.38;;;;;;;;;;5033653;28;20120;-57
2023/01/28 01:22:30;;;;;;;7.28;4.35;;;;;;;;;;5019300;28;20064;-57
2023/01/28 01:24:56;;;;;;;6.32;3.40;;;;;;;;;;5034914;28;20046;-56
2023/01/28 01:27:22;;;;;;;5.88;3.58;;;;;;;;;;4997779;28;20076;-57
2023/01/28 01:29:48;;;;;;;6.53;3.38;;;;;;;;;;5036495;28;20051;-58
2023/01/28 01:32:14;;;;;;;5.78;2.88;;;;;;;;;;5017729;28;20507;-56
2023/01/28 01:34:40;;;;;;;6.45;3.50;;;;;;;;;;5021977;28;20120;-55
2023/01/28 01:37:07;;;;;;;6.85;3.10;;;;;;;;;;5033319;28;20033;-54
2023/01/28 01:39:34;;;;;;;6.63;3.10;;;;;;;;;;5032798;28;20048;-58
2023/01/28 01:42:00;;;;;;;6.53;3.47;;;3.10;1.00;;;;;;5033751;28;20399;-56
2023/01/28 01:44:45;;;;;;;6.28;3.72;;;;;;;;;;5039055;28;20033;-57
2023/01/28 01:47:11;;;;;;;7.80;3.83;;;;;;;;;;5035986;28;20401;-57
2023/01/28 01:49:37;;;;;;;7.28;3.80;;;;;;;;;;5043102;28;20557;-57
2023/01/28 01:52:08;;;;;;;7.80;4.07;;;;;;;;;;5040662;28;20521;-58
2023/01/28 01:54:35;;;;;;;6.70;3.78;;;;;;;;;;5035310;28;20034;-57
2023/01/28 01:57:02;;;;;;;6.43;3.67;;;;;;;;;;5043299;28;20044;-57
2023/01/28 01:59:31;;;;;;;7.43;4.00;;;;;;;;;;5037521;28;20067;-57
2023/01/28 02:01:58;;;;;;;7.40;4.63;;;;;;;;;;5037199;28;20045;-57
2023/01/28 02:04:36;;;;;;;6.43;3.67;;;;;;;;;;5039758;28;20047;-57
2023/01/28 02:07:03;;;;;;;8.02;4.22;;;;;;;;;;5042719;28;20048;-57
2023/01/28 02:09:31;;;;;;;7.95;4.05;;;;;;;;;;5042725;28;20043;-56
2023/01/28 02:12:02;;;;;;;7.95;4.28;;;;;;;;;;5023761;28;20494;-57
2023/01/28 02:14:29;;;;;;;7.15;3.88;;;;;;;;;;5045726;28;20432;-58
2023/01/28 02:16:55;;;;;;;7.18;3.40;;;;;;;;;;5037260;28;20060;-58
2023/01/28 02:19:23;;;;;;;6.47;3.80;;;;;;;;;;5037792;28;20725;-57
2023/01/28 02:22:00;;;;;;;7.57;3.90;;;;;;;;;;5038653;28;20060;-58
2023/01/28 02:24:49;;;;;;;6.38;3.30;;;3.10;1.00;;;;;;5041132;28;20486;-58
2023/01/28 02:27:18;;;;;;;7.93;3.95;;;;;;;;;;5042688;28;20037;-58
2023/01/28 02:29:57;;;;;;;8.20;3.45;;;;;;;;;;5023052;28;20041;-60
2023/01/28 02:32:37;;;;;;;6.97;3.40;;;3.20;1.00;;;;;;5039538;28;20041;-58
2023/01/28 02:35:07;;;;;;;7.88;4.05;;;;;;;;;;5038239;28;20164;-58
2023/01/28 02:37:43;;;;;;;8.55;3.85;;;3.60;1.00;;;;;;5033806;28;20037;-57
2023/01/28 02:40:11;;;;;;;8.13;4.45;;;;;;;;;;5037801;28;20049;-57
2023/01/28 02:42:39;;;;;;;7.38;4.22;;;;;;;;;;5037201;28;20037;-56
2023/01/28 02:48:18;;;;;;;7.95;4.15;;;2.60;1.00;;;;;;5036948;28;20042;-57
2023/01/28 02:51:09;;;;;;;7.15;4.10;;;2.90;1.00;;;;;;5040687;28;20491;-57
2023/01/28 02:53:44;;;;;;;9.05;4.20;;;;;;;;;;5036656;28;20495;-57
2023/01/28 02:56:12;;;;;;;8.02;4.22;;;2.90;1.00;;;;;;5036538;28;20103;-56
2023/01/28 02:58:55;;;;;;;7.45;4.53;;;3.20;1.00;;;;;;5036771;28;20041;-58
2023/01/28 03:01:35;;;;;;;8.32;4.80;;;3.40;1.00;;;;;;5035470;28;20494;-58
2023/01/28 03:04:07;;;;;;;7.03;4.00;;;;;;;;;;5038417;28;20450;-57
2023/01/28 03:06:39;;;;;;;7.75;4.25;;;2.80;1.00;;;;;;5041055;28;20065;-57
2023/01/28 03:09:22;;;;;;;8.00;4.05;;;;;;;;;;5038328;28;20052;-58
2023/01/28 03:36:52;;;;;;;7.28;3.40;;;;;;;;;;5025783;28;20042;-63
2023/01/28 03:39:19;;;;;;;8.00;4.05;;;;;;;;;;5048451;22;20126;-57
2023/01/28 03:42:03;;;;;;;7.18;3.60;;;;;;;;;;5042442;28;20246;-57
2023/01/28 03:47:14;;;;;;;8.02;4.47;;;;;;;;;;5041180;28;20544;-57
2023/01/28 03:49:41;;;;;;;7.68;4.07;;;2.90;1.00;;;;;;5035407;28;20048;-56
2023/01/28 03:52:08;;;;;;;8.10;4.20;;;;;;;;;;5032534;28;20037;-56
2023/01/28 03:54:34;;;;;;;7.60;4.53;;;;;;;;;;5030477;28;20451;-56
2023/01/28 03:57:00;;;;;;;10.40;3.85;;;;;;;;;;5033835;28;20474;-57
2023/01/28 03:59:26;;;;;;;7.43;3.60;;;;;;;;;;5029715;28;20041;-58
2023/01/28 04:01:54;;;;;;;7.70;3.88;;;;;;;;;;5029677;28;20045;-56
2023/01/28 04:04:23;;;;;;;7.93;4.13;;;;;;;;;;5032996;28;20055;-57
2023/01/28 04:06:53;;;;;;;7.72;3.75;;;;;;;;;;5030921;28;20109;-53
2023/01/28 04:09:20;;;;;;;7.97;3.78;;;2.60;1.00;;;;;;5033495;28;20069;-57
2023/01/28 04:11:46;;;;;;;7.53;3.90;;;2.70;1.00;;;;;;5030433;28;20271;-56
2023/01/28 04:14:12;;;;;;;7.90;3.67;;;;;;;;;;5034381;28;20041;-54
2023/01/28 04:16:38;;;;;;;8.48;4.05;;;;;;;;;;5027899;28;20120;-55
2023/01/28 04:19:04;;;;;;;8.60;3.70;;;;;;;;;;5025275;28;20621;-57
2023/01/28 04:21:30;;;;;;;6.43;3.30;;;;;;;;;;5028201;28;20053;-53
2023/01/28 04:23:56;;;;;;;6.93;3.65;;;;;;;;;;5034039;28;20083;-54
2023/01/28 04:26:22;;;;;;;7.03;4.07;;;2.70;1.00;;;;;;5012883;28;20375;-57
2023/01/28 04:28:48;;;;;;;7.90;4.22;;;;;;;;;;5031037;28;20164;-55
2023/01/28 04:31:14;;;;;;;8.55;4.53;;;;;;;;;;5031607;28;20475;-58
2023/01/28 04:33:40;;;;;;;7.82;4.15;;;;;;;;;;5034219;28;20048;-55
2023/01/28 04:36:06;;;;;;;7.90;4.50;;;;;;;;;;5034411;28;20039;-56
2023/01/28 04:38:32;;;;;;;7.28;4.18;;;;;;;;;;5034402;28;20033;-54
2023/01/28 04:40:58;;;;;;;9.23;4.53;;;;;;;;;;5030161;28;20044;-55
2023/01/28 04:43:23;;;;;;;8.15;4.32;;;2.80;1.00;;;;;;5032105;28;20059;-56
2023/01/28 04:45:49;;;;;;;7.88;4.40;;;;;;;;;;5034808;28;20033;-57
2023/01/28 04:48:16;;;;;;;8.60;4.30;;;2.60;1.00;;;;;;5011749;28;20045;-57
2023/01/28 04:50:42;;;;;;;7.32;3.92;;;;;;;;;;5035547;28;20083;-54
2023/01/28 04:53:08;;;;;;;9.20;5.00;;;2.50;1.00;;;;;;5012715;28;20142;-55
2023/01/28 04:55:34;;;;;;;8.48;4.72;;;;;;;;;;5030081;28;20041;-57
2023/01/28 04:58:00;;;;;;;10.05;5.07;;;;;;;;;;5031604;28;20394;-57
2023/01/28 05:00:26;;;;;;;10.25;5.00;;;2.40;1.00;;;;;;5031886;28;20510;-57
2023/01/28 05:02:52;;;;;;;9.40;5.22;;;;;;;;;;5028130;28;20030;-57
2023/01/28 05:05:18;;;;;;;9.25;5.18;;;;;;;;;;5029113;28;20037;-56
2023/01/28 05:07:44;;;;;;;8.75;5.10;;;;;;;;;;5028435;28;20041;-58
2023/01/28 05:10:10;;;;;;;8.60;4.82;;;;;;;;;;5035005;28;20041;-57
2023/01/28 05:12:36;;;;;;;8.88;4.72;;;;;;;;;;5027308;28;20038;-58
2023/01/28 05:15:03;;;;;;;8.38;4.80;;;;;;;;;;5029674;28;20111;-58
2023/01/28 05:17:29;;;;;;;8.63;5.10;;;;;;;;;;5034695;28;20036;-55
2023/01/28 05:19:55;;;;;;;8.90;4.88;;;;;;;;;;5031336;28;20049;-58
2023/01/28 05:22:21;;;;;;;9.38;5.35;;;;;;;;;;5028113;28;20112;-57
2023/01/28 05:24:47;;;;;;;8.30;5.18;;;;;;;;;;5029873;28;20077;-55
2023/01/28 05:27:13;;;;;;;10.02;4.80;;;;;;;;;;5029616;28;20068;-57
2023/01/28 05:29:39;;;;;;;9.38;5.18;;;;;;;;;;5030125;28;20463;-55
2023/01/28 05:32:05;;;;;;;9.52;4.95;;;;;;;;;;5029111;28;20065;-57
2023/01/28 05:34:31;;;;;;;8.27;4.80;;;;;;;;;;5030348;28;20037;-58
2023/01/28 05:36:57;;;;;;;9.10;5.10;;;;;;;;;;5025443;28;20048;-56
2023/01/28 05:39:23;;;;;;;9.50;5.63;;;2.50;1.00;;;;;;5030441;28;20426;-56
2023/01/28 05:41:48;;;;;;;8.55;4.43;;;2.50;1.00;;;;;;5028077;28;20072;-58
2023/01/28 05:44:14;;;;;;;8.32;5.05;;;;;;;;;;5027138;28;20144;-57
2023/01/28 05:46:44;;;;;;;9.02;5.15;;;;;;;;;;5032798;28;20040;-57
2023/01/28 05:49:12;;;;;;;8.43;4.72;;;;;;;;;;5029522;28;20072;-57
2023/01/28 05:51:38;;;;;;;9.70;4.78;;;;;;;;;;5030594;28;20083;-57
2023/01/28 05:54:05;;;;;;;8.75;4.85;;;;;;;;;;5030826;28;20038;-58
2023/01/28 05:56:31;;;;;;;9.07;5.45;;;;;;;;;;5030065;28;20045;-60
2023/01/28 05:58:57;;;;;;;9.73;5.43;;;;;;;;;;5027086;28;20509;-59
2023/01/28 06:01:23;;;;;;;8.63;4.75;;;;;;;;;;5032058;28;20453;-57
2023/01/28 06:03:49;;;;;;;9.10;4.75;;;;;;;;;;5033091;28;20030;-57
2023/01/28 06:06:15;;;;;;;9.05;4.63;;;;;;;;;;5031644;28;20402;-56
2023/01/28 06:08:41;;;;;;;10.48;4.95;;;;;;;;;;5029765;28;20518;-59
2023/01/28 06:11:07;;;;;;;9.02;5.22;;;;;;;;;;5032105;28;20120;-59
2023/01/28 06:13:33;;;;;;;9.02;4.82;;;;;;;;;;5027851;28;20040;-59
2023/01/28 06:16:00;;;;;;;11.48;5.78;;;;;;;;;;5033569;28;20398;-57
2023/01/28 06:18:26;;;;;;;8.32;5.05;;;;;;;;;;5031642;28;20037;-58
2023/01/28 06:20:52;;;;;;;8.23;5.20;;;;;;;;;;5029364;28;20037;-58
2023/01/28 06:23:17;;;;;;;9.48;5.20;;;2.50;1.00;;;;;;5030858;28;20041;-58
2023/01/28 06:25:43;;;;;;;13.70;4.72;;;2.50;1.00;;;;;;5031677;28;20038;-56
2023/01/28 06:28:09;;;;;;;8.63;5.07;;;2.60;1.00;;;;;;5031390;28;20041;-57
2023/01/28 06:30:35;;;;;;;10.30;5.70;;;;;;;;;;5029228;28;20068;-58
2023/01/28 06:33:01;;;;;;;11.93;6.10;;;;;;;;;;5034323;28;20045;-58
2023/01/28 06:35:27;;;;;;;9.88;5.22;;;;;;;;;;5031429;28;20143;-54
2023/01/28 06:37:53;;;;;;;11.48;6.18;;;;;;;;;;5031797;28;20038;-58
2023/01/28 06:40:20;;;;;;;11.60;6.07;;;;;;;;;;5030108;28;20034;-59
2023/01/28 06:42:46;;;;;;;10.50;6.40;;;;;;;;;;5033707;28;20455;-58
2023/01/28 06:45:12;;;;;;;11.50;6.70;;;;;;;;;;5030661;28;20084;-57
2023/01/28 06:47:38;;;;;;;11.02;5.80;;;1.80;1.00;;;;;;5036621;28;20041;-58
2023/01/28 06:50:05;;;;;;;10.55;6.25;;;;;;;;;;5038155;28;20375;-55
2023/01/28 06:52:30;;;;;;;10.52;5.75;;;1.70;1.00;;;;;;5031100;28;21109;-56
2023/01/28 06:54:56;;;;;;;11.27;6.80;;;;;;;;;;5036026;28;20059;-59
2023/01/28 06:57:22;;;;;;;11.70;6.38;;;;;;;;;;5031945;28;20399;-58
2023/01/28 06:59:48;;;;;;;14.25;7.38;;;;;;;;;;5030760;28;20038;-58
2023/01/28 07:02:14;;;;;;;11.77;6.47;;;;;;;;;;5035425;28;20095;-58
2023/01/28 07:04:40;;;;;;;11.15;6.65;;;;;;;;;;5033528;28;20032;-56
2023/01/28 07:07:06;;;;;;;10.32;6.18;;;1.50;1.00;;;;;;5032608;28;20033;-59
2023/01/28 07:09:32;;;;;;;11.88;6.78;;;;;;;;;;5031078;28;20452;-58
2023/01/28 07:11:58;;;;;;;11.68;7.10;;;;;;;;;;5033152;28;20041;-57
2023/01/28 07:14:23;;;;;;;12.13;7.18;;;1.30;1.00;;;;;;5030865;28;20041;-58
2023/01/28 07:16:49;;;;;;;10.05;5.47;;;;;;;;;;5032752;28;20486;-58
2023/01/28 07:19:15;;;;;;;11.98;7.15;;;;;;;;;;5033124;28;20053;-58
2023/01/28 07:21:41;;;;;;;11.85;5.88;;;;;;;;;;5033812;28;20578;-58
2023/01/28 07:24:07;;;;;;;11.70;6.35;;;;;;;;;;5033774;28;20041;-57
2023/01/28 07:26:33;;;;;;;13.18;7.13;;;;;;;;;;5030562;28;20040;-58
2023/01/28 07:28:59;;;;;;;13.52;8.05;;;1.20;1.00;;;;;;5032798;28;20179;-57
2023/01/28 07:31:25;;;;;;;11.75;7.05;;;;;;;;;;5030822;28;20687;-57
2023/01/28 07:33:51;;;;;;;11.75;7.13;;;;;;;;;;5032529;28;20033;-56
2023/01/28 07:36:17;;;;;;;13.95;7.93;;;;;;;;;;5032584;28;20584;-59
2023/01/28 07:38:43;;;;;;;14.13;8.27;;;1.00;1.00;;;;;;5031959;28;20516;-57
2023/01/28 07:41:09;;;;;;;15.77;8.18;;;;;;;;;;5032103;28;20037;-59
2023/01/28 07:43:35;;;;;;;12.55;7.47;;;;;;;;;;5030890;28;20041;-58
2023/01/28 07:46:01;;;;;;;13.30;8.38;;;;;;;;;;5033009;28;20409;-59
2023/01/28 07:48:27;;;;;;;12.90;7.55;;;;;;;;;;5030136;28;20044;-58
2023/01/28 07:50:53;;;;;;;14.27;8.25;;;;;;;;;;5022985;28;20069;-58
2023/01/28 07:53:19;;;;;;;14.65;8.00;;;;;;;;;;5032149;28;20414;-60
2023/01/28 07:55:46;;;;;;;13.88;8.75;;;;;;;;;;5031489;28;20759;-57
2023/01/28 07:58:12;;;;;;;13.48;7.35;;;;;;;;;;5030893;28;20533;-60
2023/01/28 08:00:38;;;;;;;16.42;8.18;;;;;;;;;;5035779;28;20059;-55
2023/01/28 08:03:06;;;;;;;16.17;8.93;;;;;;;;;;5033087;28;20037;-57
2023/01/28 08:05:40;;;;;;;13.18;7.88;;;;;;;;;;5031553;28;20079;-56
2023/01/28 08:08:07;;;;;;;13.77;8.55;;;;;;;;;;5032344;28;20391;-56
2023/01/28 08:10:33;;;;;;;15.65;8.77;;;1.20;1.00;;;;;;5034135;28;20116;-54
2023/01/28 08:12:59;;;;;;;13.77;7.43;;;1.30;1.00;;;;;;5030634;28;20450;-53
2023/01/28 08:15:26;;;;;;;13.70;7.90;;;1.60;1.00;;;;;;5021069;28;20037;-52
2023/01/28 08:17:56;;;;;;;13.52;7.60;;;1.30;1.00;;;;;;5021153;28;20069;-53
2023/01/28 08:20:22;;;;;;;16.48;8.55;;;;;;;;;;5024598;28;20038;-53
2023/01/28 08:22:48;;;;;;;13.70;8.18;;;1.30;1.00;;;;;;5024932;28;20048;-56
2023/01/28 08:25:14;;;;;;;14.77;8.07;;;;;;;;;;5024711;28;20403;-56
2023/01/28 08:27:40;;;;;;;13.55;8.23;;;;;;;;;;5024661;28;20037;-53
2023/01/28 08:30:08;;;;;;;14.60;7.60;;;;;;;;;;5024654;28;20037;-56
2023/01/28 08:32:34;;;;;;;13.13;7.65;;;;;;;;;;5023759;28;20060;-55
2023/01/28 08:35:04;;;;;;;14.55;7.65;;;;;;;;;;5024875;28;20037;-55
2023/01/28 08:37:30;;;;;;;18.42;8.65;;;;;;;;;;5021750;28;20079;-56
2023/01/28 08:39:56;;;;;;;13.32;7.72;;;;;;;;;;5021740;28;20060;-52
2023/01/28 08:42:22;;;;;;;15.73;8.27;;;;;;;;;;5023917;28;20498;-56
2023/01/28 08:44:48;;;;;;;11.88;7.13;;;;;;;;;;5024915;28;20077;-56
2023/01/28 08:47:14;;;;;;;14.00;7.97;;;;;;;;;;5024199;28;20045;-55
2023/01/28 08:49:40;;;;;;;13.77;7.55;;;;;;;;;;5022057;28;20041;-56
2023/01/28 08:52:06;;;;;;;13.35;7.95;;;1.70;1.00;;;;;;5024377;28;20040;-55
2023/01/28 08:54:35;;;;;;;14.48;8.25;;;;;;;;;;5023738;28;20092;-54
2023/01/28 08:57:01;;;;;;;12.43;7.18;;;;;;;;;;5021957;28;20106;-55
2023/01/28 08:59:27;;;;;;;15.95;8.20;;;;;;;;;;5023542;28;20044;-56
2023/01/28 09:01:53;;;;;;;14.48;8.10;;;;;;;;;;5023410;28;20037;-55
2023/01/28 09:04:19;;;;;;;16.13;8.20;;;1.70;1.00;;;;;;5023600;28;20505;-55
2023/01/28 09:06:45;;;;;;;14.32;8.38;;;;;;;;;;5022928;28;20033;-56
2023/01/28 09:09:10;;;;;;;14.05;8.73;;;1.60;1.00;;;;;;5024397;28;20037;-56
2023/01/28 09:11:36;;;;;;;16.92;8.95;;;;;;;;;;5024443;28;20064;-54
2023/01/28 09:14:02;;;;;;;14.10;8.63;;;;;;;;;;5024767;28;20042;-56
2023/01/28 09:16:28;;;;;;;13.85;8.05;;;;;;;;;;5022235;28;20439;-56
2023/01/28 09:18:54;;;;;;;12.07;7.60;;;;;;;;;;5019848;28;20045;-54
2023/01/28 09:21:23;;;;;;;12.48;7.70;;;;;;;;;;5020639;28;20443;-55
2023/01/28 09:23:49;;;;;;;16.27;7.65;;;;;;;;;;5022412;28;20029;-55
2023/01/28 09:26:15;;;;;;;11.55;7.43;;;;;;;;;;5021593;28;20035;-56
2023/01/28 09:28:41;;;;;;;13.38;7.65;;;;;;;;;;5021882;28;20048;-55
2023/01/28 09:31:09;;;;;;;12.80;6.88;;;;;;;;;;5032613;28;20041;-52
2023/01/28 09:33:36;;;;;;;16.27;7.32;;;;;;;;;;5022336;28;20042;-56
2023/01/28 09:36:03;;;;;;;11.70;6.95;;;;;;;;;;5021121;28;20033;-57
2023/01/28 09:38:29;;;;;;;13.27;7.25;;;;;;;;;;5021261;28;20038;-56
2023/01/28 09:40:59;;;;;;;10.70;6.70;;;;;;;;;;5005342;28;20038;-53
2023/01/28 09:43:26;;;;;;;11.52;6.00;;;;;;;;;;5022240;28;20045;-55
2023/01/28 09:45:56;;;;;;;10.90;6.05;;;;;;;;;;5024023;28;20437;-54
2023/01/28 09:48:24;;;;;;;11.18;6.20;;;;;;;;;;5024334;28;20048;-56
2023/01/28 09:50:52;;;;;;;12.18;6.97;;;;;;;;;;5021505;28;20104;-56
2023/01/28 09:53:25;;;;;;;14.07;7.28;;;;;;;;;;5019513;28;20065;-55
2023/01/28 09:56:06;;;;;;;11.10;6.18;;;2.60;1.00;;;;;;5022108;28;21665;-55
2023/01/28 09:58:32;;;;;;;13.15;7.78;;;;;;;;;;5020752;28;20041;-55
2023/01/28 10:01:01;;;;;;;11.40;6.25;;;;;;;;;;5020533;28;20160;-55
2023/01/28 10:03:52;;;;;;;10.65;6.43;;;4.00;1.00;;;;;;5021071;28;20483;-56
2023/01/28 10:06:18;;;;;;;11.07;5.85;;;;;;;;;;5019052;28;20124;-56
2023/01/28 10:09:02;;;;;;;13.32;6.53;;;;;;;;;;5022388;28;20242;-55
2023/01/28 10:11:40;;;;;;;9.73;6.00;;;;;;;;;;5032794;28;20479;-52
2023/01/28 10:14:16;;;;;;;11.32;6.57;;;;;;;;;;5022561;28;20037;-54
2023/01/28 10:16:50;;;;;;;11.85;6.63;;;;;;;;;;5025182;28;20048;-55
2023/01/28 10:19:42;;;;;;;10.57;5.68;;;;;;;;;;5024817;28;20052;-54
2023/01/28 10:22:18;;;;;;;10.65;5.97;;;;;;;;;;5023677;28;20526;-54
2023/01/28 10:24:48;;;;;;;12.00;6.25;;;;;;;;;;5027016;28;20437;-53
2023/01/28 10:27:28;;;;;;;10.15;5.75;;;4.30;1.00;;;;;;5027409;28;20040;-53
2023/01/28 10:29:55;;;;;;;10.63;5.93;;;;;;;;;;5026898;28;20037;-56
2023/01/28 10:32:35;;;;;;;9.75;5.18;;;;;;;;;;5026294;28;20557;-56
2023/01/28 10:35:02;;;;;;;10.70;5.70;;;;;;;;;;5027697;28;20065;-52
2023/01/28 10:37:31;;;;;;;10.45;5.22;;;;;;;;;;5025011;28;20708;-53
2023/01/28 10:39:58;;;;;;;11.45;5.95;;;;;;;;;;5023643;28;20403;-55
2023/01/28 10:42:32;;;;;;;9.27;4.63;;;;;;;;;;5025151;28;20091;-54
2023/01/28 10:45:13;;;;;;;8.60;4.82;;;;;;;;;;5025055;28;20127;-57
2023/01/28 10:47:44;;;;;;;9.85;4.80;;;;;;;;;;5024088;28;20034;-55
2023/01/28 10:50:17;;;;;;;11.07;6.10;;;5.10;1.00;;;;;;5026966;28;20045;-56
2023/01/28 10:52:56;;;;;;;10.18;5.45;;;;;;;;;;5025388;28;20049;-60
2023/01/28 10:55:22;;;;;;;8.98;4.75;;;;;;;;;;5023587;28;20060;-58
2023/01/28 10:57:51;;;;;;;10.07;5.65;;;;;;;;;;5026585;28;20507;-61
2023/01/28 11:00:26;;;;;;;10.00;5.10;;;;;;;;;;5023680;28;20041;-60
2023/01/28 11:02:55;;;;;;;;;;;5.40;1.00;;;;;;5025309;28;20037;-62
2023/01/28 11:05:31;;;;;;;9.55;4.63;;;;;;;;;;5030732;28;19927;-61
2023/01/28 11:08:13;;;;;;;11.15;5.43;;;;;;;;;;5031967;28;20034;-61
2023/01/28 11:10:40;;;;;;;13.32;5.03;;;;;;;;;;5029372;28;20045;-62
2023/01/28 11:13:26;;;;;;;9.35;5.05;;;5.60;1.00;;;;;;5031359;28;20490;-60
2023/01/28 11:16:00;;;;;;;10.88;5.28;;;5.50;1.00;;;;;;5031433;28;20099;-61
2023/01/28 11:18:27;;;;;;;9.23;4.97;;;;;;;;;;5029660;28;20121;-61
2023/01/28 11:20:55;;;;;;;10.52;5.38;;;;;;;;;;5029771;28;20447;-61
2023/01/28 11:23:26;;;;;;;9.05;3.70;;;5.60;1.00;;;;;;5030198;28;20045;-60
2023/01/28 11:26:25;;;;;;;9.80;4.80;;;4.80;1.00;;;;;;5032213;28;20723;-62
2023/01/28 11:28:54;;;;;;;8.93;4.97;;;;;;;;;;5023880;28;20029;-61
2023/01/28 11:31:25;;;;;;;9.40;4.13;;;5.50;1.00;;;;;;5026157;28;20065;-62
2023/01/28 11:33:58;;;;;;;14.93;5.00;;;;;;;;;;5020927;28;20049;-62
2023/01/28 11:36:36;;;;;;;12.10;4.82;;;4.90;1.00;;;;;;5022487;28;20766;-62
2023/01/28 11:39:04;;;;;;;9.30;5.07;;;;;;;;;;5046176;28;20029;-61
2023/01/28 11:41:33;;;;;;;11.50;5.78;;;;;;;;;;5021547;28;20124;-62
2023/01/28 11:44:15;;;;;;;9.98;4.63;;;5.50;1.00;;;;;;5028033;28;20151;-62
2023/01/28 11:46:47;;;;;;;8.90;3.97;;;;;;;;;;5029433;28;20642;-60
2023/01/28 11:49:26;;;;;;;9.23;4.00;;;;;;;;;;5029208;28;20057;-62
2023/01/28 11:51:55;;;;;;;8.73;4.50;;;;;;;;;;5042602;28;20041;-61
2023/01/28 11:54:38;;;;;;;12.43;4.90;;;;;;;;;;5027278;28;20414;-62
2023/01/28 11:57:21;;;;;;;10.70;4.93;;;;;;;;;;5014588;28;20164;-62
2023/01/28 11:59:59;;;;;;;10.27;5.15;;;;;;;;;;5016343;28;20083;-59
2023/01/28 12:02:26;;;;;;;10.90;3.67;;;;;;;;;;5022071;28;20052;-61
2023/01/28 12:05:28;;;;;;;9.45;4.60;;;5.60;1.00;;;;;;5028982;28;20041;-60
2023/01/28 12:08:00;;;;;;;10.40;4.80;;;;;;;;;;5026736;28;20495;-60
2023/01/28 12:10:41;;;;;;;8.45;4.30;;;;;;;;;;5022509;28;20486;-61
2023/01/28 12:13:32;;;;;;;9.38;3.90;;;;;;;;;;5022162;28;20049;-61
2023/01/28 12:16:00;;;;;;;9.32;4.55;;;;;;;;;;5027163;28;20440;-62
2023/01/28 12:18:45;;;;;;;9.13;4.60;;;;;;;;;;5027517;28;20103;-62
2023/01/28 12:21:33;;;;;;;9.20;4.45;;;6.50;1.00;;;;;;5028009;28;20128;-61
2023/01/28 12:24:50;;;;;;;10.75;5.20;;;6.30;1.00;;;;;;5024061;28;20112;-61
2023/01/28 12:27:22;;;;;;;10.18;4.78;;;;;;;;;;5027139;28;20052;-61
2023/01/28 12:29:50;;;;;;;8.23;4.40;;;;;;;;;;5028813;28;20494;-61
2023/01/28 12:32:23;;;;;;;7.97;3.70;;;;;;;;;;5021998;28;20040;-62
2023/01/28 12:34:49;;;;;;;8.75;3.72;;;;;;;;;;5028608;28;20117;-61
2023/01/28 12:37:39;;;;;;;8.30;4.30;;;6.90;1.00;;;;;;5028363;28;20044;-61
2023/01/28 12:40:20;;;;;;;8.15;3.42;;;7.00;1.00;;;;;;5030336;28;20033;-61
2023/01/28 12:42:57;;;;;;;9.15;3.75;;;;;;;;;;5021298;28;20084;-61
2023/01/28 12:45:47;;;;;;;6.70;2.67;;;;;;;;;;5030439;28;20037;-61
2023/01/28 12:48:31;;;;;;;7.43;3.60;;;6.20;1.00;;;;;;5002199;28;20058;-61
2023/01/28 12:50:57;;;;;;;7.53;3.73;;;;;;;;;;5029634;28;20041;-61
2023/01/28 12:53:46;;;;;;;7.43;3.70;;;;;;;;;;5021050;28;20312;-61
2023/01/28 12:56:33;;;;;;;7.95;3.70;;;6.80;1.00;;;;;;5022345;28;20049;-61
2023/01/28 12:59:10;;;;;;;8.50;3.78;;;;;;;;;;5024896;28;20501;-61
2023/01/28 13:02:02;;;;;;;8.35;3.55;;;6.90;1.00;;;;;;5021215;28;20135;-61
2023/01/28 13:05:02;;;;;;;7.45;3.22;;;6.80;1.00;;;;;;5017750;28;20470;-60
2023/01/28 13:07:40;;;;;;;9.85;3.45;;;;;;;;;;5023396;28;20041;-61
2023/01/28 13:10:29;;;;;;;9.05;3.00;;;;;;;;;;5031032;28;20045;-59
2023/01/28 13:12:58;;;;;;;8.80;3.80;;;;;;;;;;5025932;28;20029;-61
2023/01/28 13:15:25;;;;;;;8.70;3.70;;;;;;;;;;5027451;28;20076;-60
2023/01/28 13:18:01;;;;;;;7.40;3.17;;;;;;;;;;5025550;28;20404;-60
2023/01/28 13:20:47;;;;;;;12.85;4.72;;;6.90;1.00;;;;;;5025843;28;20091;-60
2023/01/28 13:23:24;;;;;;;7.63;3.03;;;6.20;1.00;;;;;;5026446;28;20041;-60
2023/01/28 13:26:10;;;;;;;7.03;3.33;;;6.10;1.00;;;;;;5025460;28;20045;-58
2023/01/28 13:28:36;;;;;;;9.18;3.97;;;6.30;1.00;;;;;;5024707;28;20038;-59
2023/01/28 13:31:16;;;;;;;6.55;2.80;;;6.80;1.00;;;;;;5024899;28;20043;-60
2023/01/28 13:33:45;;;;;;;6.20;2.72;;;6.90;1.00;;;;;;5019226;28;20068;-60
2023/01/28 13:36:35;;;;;;;7.38;2.53;;;6.40;1.00;;;;;;5037035;28;20045;-60
2023/01/28 13:39:04;;;;;;;5.57;2.13;;;6.50;1.00;;;;;;5026535;28;20163;-60
2023/01/28 13:41:41;;;;;;;6.22;2.03;;;6.50;1.00;;;;;;5026978;28;20446;-59
2023/01/28 13:44:27;;;;;;;8.57;2.65;;;6.30;1.00;;;;;;5029027;28;20045;-60
2023/01/28 13:46:54;;;;;;;6.15;2.00;;;6.00;1.00;;;;;;5028887;28;20041;-60
2023/01/28 13:49:25;;;;;;;8.43;2.30;;;;;;;;;;5025989;28;20041;-55
2023/01/28 13:52:10;;;;;;;7.10;2.45;;;;;;;;;;5030683;28;20056;-58
2023/01/28 13:55:02;;;;;;;6.28;2.45;;;6.00;1.00;;;;;;5033781;28;20147;-59
2023/01/28 13:57:44;;;;;;;5.63;2.13;;;6.60;1.00;;;;;;5030322;28;20049;-57
2023/01/28 14:00:27;;;;;;;5.88;1.70;;;5.90;1.00;;;;;;5033467;28;20411;-58
2023/01/28 14:02:56;;;;;;;9.10;3.03;;;;;;;;;;5033421;28;20072;-57
2023/01/28 14:05:31;;;;;;;4.97;1.98;;;;;;;;;;5033600;28;20073;-59
2023/01/28 14:08:16;;;;;;;5.95;2.38;;;;;;;;;;5033567;28;20040;-59
2023/01/28 14:10:42;;;;;;;7.93;2.72;;;;;;;;;;5032428;28;20424;-58
2023/01/28 14:13:29;;;;;;;5.47;2.50;;;6.10;1.00;;;;;;5031893;28;20085;-59
2023/01/28 14:16:13;;;;;;;6.45;2.20;;;;;;;;;;5033619;28;20514;-60
2023/01/28 14:18:43;;;;;;;6.15;1.80;;;5.50;1.00;;;;;;5031947;28;20387;-60
2023/01/28 14:21:11;;;;;;;7.32;2.45;;;;;;;;;;5029972;28;20081;-60
2023/01/28 14:23:38;;;;;;;5.82;2.30;;;;;;;;;;5028253;28;20030;-60
2023/01/28 14:26:04;;;;;;;8.05;2.63;;;;;;;;;;5018845;28;20029;-59
2023/01/28 14:28:33;;;;;;;7.85;2.60;;;6.00;1.00;;;;;;5023332;28;20087;-59
2023/01/28 14:31:07;;;;;;;4.78;1.90;;;6.50;1.00;;;;;;5027765;28;20095;-58
2023/01/28 14:33:35;;;;;;;7.97;2.10;;;;;;;;;;5029771;28;20037;-60
2023/01/28 14:36:00;;;;;;;6.05;1.90;;;6.20;1.00;;;;;;5027538;28;20557;-59
2023/01/28 14:38:27;;;;;;;9.35;2.85;;;5.90;1.00;;;;;;5031356;28;20038;-59
2023/01/28 14:40:54;;;;;;;5.90;2.25;;;;;;;;;;5023196;28;20116;-60
2023/01/28 14:43:21;;;;;;;6.40;2.28;;;;;;;;;;5016253;28;20459;-60
2023/01/28 14:45:50;;;;;;;6.78;2.17;;;;;;;;;;5024626;28;20541;-59
2023/01/28 14:48:24;;;;;;;7.10;2.30;;;;;;;;;;5024336;28;20091;-59
2023/01/28 14:51:14;;;;;;;5.35;2.20;;;6.00;1.00;;;;;;5027958;28;20121;-59
2023/01/28 14:53:59;;;;;;;5.95;2.10;;;;;;;;;;5028575;28;20045;-59
2023/01/28 14:56:42;;;;;;;6.35;2.38;;;6.60;1.00;;;;;;5028992;28;20053;-60
2023/01/28 14:59:26;;;;;;;5.88;2.20;;;5.90;1.00;;;;;;5024650;28;20034;-60
2023/01/28 15:01:55;;;;;;;6.68;1.80;;;;;;;;;;5019723;28;20041;-60
2023/01/28 15:04:30;;;;;;;5.68;2.08;;;;;;;;;;5021218;28;20088;-60